sensor_id;sensor_type;location;lat;lon;timestamp;P1;durP1;ratioP1;P2;durP2;ratioP2
52724;SDS011;38621;52.830;6.914;2023-09-19T00:01:08;3.35;;;0.98;;
52724;SDS011;38621;52.830;6.914;2023-09-19T00:03:37;4.30;;;1.00;;
52724;SDS011;38621;52.830;6.914;2023-09-19T00:06:04;4.63;;;1.27;;
52724;SDS011;38621;52.830;6.914;2023-09-19T00:08:30;2.60;;;1.00;;
52724;SDS011;38621;52.830;6.914;2023-09-19T00:10:58;4.22;;;1.13;;
52724;SDS011;38621;52.830;6.914;2023-09-19T00:13:28;3.42;;;1.10;;
52724;SDS011;38621;52.830;6.914;2023-09-19T00:15:56;4.47;;;1.17;;
52724;SDS011;38621;52.830;6.914;2023-09-19T00:18:24;3.70;;;1.20;;
52724;SDS011;38621;52.830;6.914;2023-09-19T00:20:56;2.28;;;0.82;;
52724;SDS011;38621;52.830;6.914;2023-09-19T00:23:23;2.03;;;1.00;;
52724;SDS011;38621;52.830;6.914;2023-09-19T00:25:49;3.33;;;0.85;;
52724;SDS011;38621;52.830;6.914;2023-09-19T00:28:16;2.92;;;0.90;;
52724;SDS011;38621;52.830;6.914;2023-09-19T00:30:43;5.20;;;1.08;;
52724;SDS011;38621;52.830;6.914;2023-09-19T00:33:10;1.70;;;0.80;;
52724;SDS011;38621;52.830;6.914;2023-09-19T00:35:46;3.08;;;0.90;;
52724;SDS011;38621;52.830;6.914;2023-09-19T00:38:15;2.90;;;1.02;;
52724;SDS011;38621;52.830;6.914;2023-09-19T00:40:45;3.13;;;1.23;;
52724;SDS011;38621;52.830;6.914;2023-09-19T00:43:12;2.33;;;1.20;;
52724;SDS011;38621;52.830;6.914;2023-09-19T00:45:38;4.38;;;1.08;;
52724;SDS011;38621;52.830;6.914;2023-09-19T00:48:07;4.28;;;0.90;;
52724;SDS011;38621;52.830;6.914;2023-09-19T00:50:34;1.42;;;0.70;;
52724;SDS011;38621;52.830;6.914;2023-09-19T00:53:01;4.20;;;1.08;;
52724;SDS011;38621;52.830;6.914;2023-09-19T00:55:35;3.30;;;0.93;;
52724;SDS011;38621;52.830;6.914;2023-09-19T00:58:02;3.22;;;1.00;;
52724;SDS011;38621;52.830;6.914;2023-09-19T01:00:29;5.30;;;1.23;;
52724;SDS011;38621;52.830;6.914;2023-09-19T01:02:55;6.05;;;1.20;;
52724;SDS011;38621;52.830;6.914;2023-09-19T01:05:21;4.38;;;1.40;;
52724;SDS011;38621;52.830;6.914;2023-09-19T01:07:48;3.90;;;1.23;;
52724;SDS011;38621;52.830;6.914;2023-09-19T01:10:15;3.35;;;1.20;;
52724;SDS011;38621;52.830;6.914;2023-09-19T01:16:22;5.75;;;1.40;;
52724;SDS011;38621;52.830;6.914;2023-09-19T01:29:49;7.22;;;1.45;;
52724;SDS011;38621;52.830;6.914;2023-09-19T01:32:10;4.10;;;1.40;;
52724;SDS011;38621;52.830;6.914;2023-09-19T01:37:20;4.45;;;1.63;;
52724;SDS011;38621;52.830;6.914;2023-09-19T01:39:52;4.53;;;1.42;;
52724;SDS011;38621;52.830;6.914;2023-09-19T01:42:59;4.75;;;1.35;;
52724;SDS011;38621;52.830;6.914;2023-09-19T01:56:28;4.53;;;1.58;;
52724;SDS011;38621;52.830;6.914;2023-09-19T01:59:17;5.97;;;1.60;;
52724;SDS011;38621;52.830;6.914;2023-09-19T02:01:49;6.85;;;1.88;;
52724;SDS011;38621;52.830;6.914;2023-09-19T02:04:18;4.90;;;2.03;;
52724;SDS011;38621;52.830;6.914;2023-09-19T02:06:44;4.63;;;1.63;;
52724;SDS011;38621;52.830;6.914;2023-09-19T02:09:12;6.40;;;1.73;;
52724;SDS011;38621;52.830;6.914;2023-09-19T02:11:39;3.80;;;2.00;;
52724;SDS011;38621;52.830;6.914;2023-09-19T02:14:07;5.97;;;1.63;;
52724;SDS011;38621;52.830;6.914;2023-09-19T02:16:33;5.85;;;1.63;;
52724;SDS011;38621;52.830;6.914;2023-09-19T02:18:59;5.75;;;1.77;;
52724;SDS011;38621;52.830;6.914;2023-09-19T02:21:26;3.88;;;1.73;;
52724;SDS011;38621;52.830;6.914;2023-09-19T02:23:54;5.97;;;1.80;;
52724;SDS011;38621;52.830;6.914;2023-09-19T02:26:20;3.63;;;1.58;;
52724;SDS011;38621;52.830;6.914;2023-09-19T02:28:47;3.83;;;1.60;;
52724;SDS011;38621;52.830;6.914;2023-09-19T02:31:12;5.18;;;1.70;;
52724;SDS011;38621;52.830;6.914;2023-09-19T02:33:38;6.13;;;1.52;;
52724;SDS011;38621;52.830;6.914;2023-09-19T02:36:04;5.18;;;1.67;;
52724;SDS011;38621;52.830;6.914;2023-09-19T02:38:30;3.15;;;1.38;;
52724;SDS011;38621;52.830;6.914;2023-09-19T02:40:56;5.28;;;1.73;;
52724;SDS011;38621;52.830;6.914;2023-09-19T02:43:22;5.30;;;2.05;;
52724;SDS011;38621;52.830;6.914;2023-09-19T02:45:48;4.47;;;1.83;;
52724;SDS011;38621;52.830;6.914;2023-09-19T02:48:15;4.55;;;1.65;;
52724;SDS011;38621;52.830;6.914;2023-09-19T02:50:41;5.13;;;1.70;;
52724;SDS011;38621;52.830;6.914;2023-09-19T02:53:08;7.07;;;1.60;;
52724;SDS011;38621;52.830;6.914;2023-09-19T02:55:37;4.15;;;1.60;;
52724;SDS011;38621;52.830;6.914;2023-09-19T02:58:05;3.15;;;1.48;;
52724;SDS011;38621;52.830;6.914;2023-09-19T03:00:36;4.10;;;1.60;;
52724;SDS011;38621;52.830;6.914;2023-09-19T03:03:02;4.75;;;1.73;;
52724;SDS011;38621;52.830;6.914;2023-09-19T03:05:29;5.93;;;1.88;;
52724;SDS011;38621;52.830;6.914;2023-09-19T03:07:57;7.15;;;2.00;;
52724;SDS011;38621;52.830;6.914;2023-09-19T03:10:25;4.53;;;1.73;;
52724;SDS011;38621;52.830;6.914;2023-09-19T03:12:53;5.45;;;1.67;;
52724;SDS011;38621;52.830;6.914;2023-09-19T03:15:19;4.38;;;1.63;;
52724;SDS011;38621;52.830;6.914;2023-09-19T03:17:47;3.33;;;1.40;;
52724;SDS011;38621;52.830;6.914;2023-09-19T03:20:14;3.17;;;1.58;;
52724;SDS011;38621;52.830;6.914;2023-09-19T03:22:45;5.30;;;1.52;;
52724;SDS011;38621;52.830;6.914;2023-09-19T03:25:11;2.95;;;1.33;;
52724;SDS011;38621;52.830;6.914;2023-09-19T03:27:38;3.80;;;1.20;;
52724;SDS011;38621;52.830;6.914;2023-09-19T03:30:04;4.43;;;1.40;;
52724;SDS011;38621;52.830;6.914;2023-09-19T03:32:34;4.53;;;1.30;;
52724;SDS011;38621;52.830;6.914;2023-09-19T03:35:08;5.80;;;1.77;;
52724;SDS011;38621;52.830;6.914;2023-09-19T03:37:36;4.55;;;1.40;;
52724;SDS011;38621;52.830;6.914;2023-09-19T03:40:02;2.95;;;1.20;;
52724;SDS011;38621;52.830;6.914;2023-09-19T03:42:30;4.70;;;1.83;;
52724;SDS011;38621;52.830;6.914;2023-09-19T03:44:56;4.70;;;1.27;;
52724;SDS011;38621;52.830;6.914;2023-09-19T03:47:22;5.43;;;1.60;;
52724;SDS011;38621;52.830;6.914;2023-09-19T03:49:48;3.60;;;1.40;;
52724;SDS011;38621;52.830;6.914;2023-09-19T03:52:14;3.65;;;1.40;;
52724;SDS011;38621;52.830;6.914;2023-09-19T03:54:41;3.42;;;1.60;;
52724;SDS011;38621;52.830;6.914;2023-09-19T03:57:06;4.72;;;1.60;;
52724;SDS011;38621;52.830;6.914;2023-09-19T03:59:32;3.20;;;1.50;;
52724;SDS011;38621;52.830;6.914;2023-09-19T04:01:58;3.80;;;1.60;;
52724;SDS011;38621;52.830;6.914;2023-09-19T04:04:24;4.35;;;1.40;;
52724;SDS011;38621;52.830;6.914;2023-09-19T04:06:50;5.32;;;1.50;;
52724;SDS011;38621;52.830;6.914;2023-09-19T04:09:16;6.03;;;1.73;;
52724;SDS011;38621;52.830;6.914;2023-09-19T04:11:42;4.40;;;1.55;;
52724;SDS011;38621;52.830;6.914;2023-09-19T04:14:08;7.47;;;1.60;;
52724;SDS011;38621;52.830;6.914;2023-09-19T04:16:33;3.33;;;1.50;;
52724;SDS011;38621;52.830;6.914;2023-09-19T04:18:59;5.80;;;1.95;;
52724;SDS011;38621;52.830;6.914;2023-09-19T04:21:25;7.75;;;1.70;;
52724;SDS011;38621;52.830;6.914;2023-09-19T04:23:51;3.25;;;1.33;;
52724;SDS011;38621;52.830;6.914;2023-09-19T04:26:17;4.18;;;1.80;;
52724;SDS011;38621;52.830;6.914;2023-09-19T04:28:43;5.20;;;1.75;;
52724;SDS011;38621;52.830;6.914;2023-09-19T04:31:09;5.65;;;1.70;;
52724;SDS011;38621;52.830;6.914;2023-09-19T04:33:37;6.38;;;2.03;;
52724;SDS011;38621;52.830;6.914;2023-09-19T04:36:03;5.80;;;1.70;;
52724;SDS011;38621;52.830;6.914;2023-09-19T04:38:30;4.28;;;1.60;;
52724;SDS011;38621;52.830;6.914;2023-09-19T04:40:59;2.50;;;1.50;;
52724;SDS011;38621;52.830;6.914;2023-09-19T04:43:25;5.80;;;1.77;;
52724;SDS011;38621;52.830;6.914;2023-09-19T04:45:51;3.17;;;1.75;;
52724;SDS011;38621;52.830;6.914;2023-09-19T04:48:21;6.32;;;1.80;;
52724;SDS011;38621;52.830;6.914;2023-09-19T04:50:49;5.13;;;1.60;;
52724;SDS011;38621;52.830;6.914;2023-09-19T04:53:15;9.73;;;2.47;;
52724;SDS011;38621;52.830;6.914;2023-09-19T04:55:42;5.47;;;1.65;;
52724;SDS011;38621;52.830;6.914;2023-09-19T04:58:08;6.65;;;2.20;;
52724;SDS011;38621;52.830;6.914;2023-09-19T05:00:34;5.97;;;1.98;;
52724;SDS011;38621;52.830;6.914;2023-09-19T05:03:00;7.88;;;1.90;;
52724;SDS011;38621;52.830;6.914;2023-09-19T05:05:26;8.50;;;2.15;;
52724;SDS011;38621;52.830;6.914;2023-09-19T05:07:51;4.07;;;1.30;;
52724;SDS011;38621;52.830;6.914;2023-09-19T05:10:20;5.57;;;1.90;;
52724;SDS011;38621;52.830;6.914;2023-09-19T05:12:46;4.93;;;1.90;;
52724;SDS011;38621;52.830;6.914;2023-09-19T05:15:13;6.68;;;1.80;;
52724;SDS011;38621;52.830;6.914;2023-09-19T05:17:47;5.32;;;2.00;;
52724;SDS011;38621;52.830;6.914;2023-09-19T05:20:15;6.57;;;1.50;;
52724;SDS011;38621;52.830;6.914;2023-09-19T05:22:50;5.60;;;1.92;;
52724;SDS011;38621;52.830;6.914;2023-09-19T05:25:22;5.63;;;1.50;;
52724;SDS011;38621;52.830;6.914;2023-09-19T05:27:48;4.32;;;1.63;;
52724;SDS011;38621;52.830;6.914;2023-09-19T05:30:15;5.07;;;1.70;;
52724;SDS011;38621;52.830;6.914;2023-09-19T05:32:41;7.57;;;1.83;;
52724;SDS011;38621;52.830;6.914;2023-09-19T05:35:08;5.03;;;1.75;;
52724;SDS011;38621;52.830;6.914;2023-09-19T05:37:34;7.07;;;1.63;;
52724;SDS011;38621;52.830;6.914;2023-09-19T05:40:02;7.38;;;1.90;;
52724;SDS011;38621;52.830;6.914;2023-09-19T05:42:32;5.05;;;1.70;;
52724;SDS011;38621;52.830;6.914;2023-09-19T05:44:57;4.22;;;1.60;;
52724;SDS011;38621;52.830;6.914;2023-09-19T05:47:23;5.20;;;1.77;;
52724;SDS011;38621;52.830;6.914;2023-09-19T05:49:50;4.80;;;1.50;;
52724;SDS011;38621;52.830;6.914;2023-09-19T05:52:16;5.25;;;1.80;;
52724;SDS011;38621;52.830;6.914;2023-09-19T05:54:43;4.82;;;1.35;;
52724;SDS011;38621;52.830;6.914;2023-09-19T05:57:08;4.63;;;1.45;;
52724;SDS011;38621;52.830;6.914;2023-09-19T05:59:37;5.10;;;1.30;;
52724;SDS011;38621;52.830;6.914;2023-09-19T06:02:05;6.07;;;1.58;;
52724;SDS011;38621;52.830;6.914;2023-09-19T06:04:31;8.50;;;1.90;;
52724;SDS011;38621;52.830;6.914;2023-09-19T06:06:57;6.78;;;2.13;;
52724;SDS011;38621;52.830;6.914;2023-09-19T06:09:23;5.03;;;1.50;;
52724;SDS011;38621;52.830;6.914;2023-09-19T06:11:49;5.07;;;1.88;;
52724;SDS011;38621;52.830;6.914;2023-09-19T06:14:15;5.97;;;1.40;;
52724;SDS011;38621;52.830;6.914;2023-09-19T06:16:42;8.25;;;1.77;;
52724;SDS011;38621;52.830;6.914;2023-09-19T06:19:08;6.43;;;2.00;;
52724;SDS011;38621;52.830;6.914;2023-09-19T06:21:35;6.25;;;1.95;;
52724;SDS011;38621;52.830;6.914;2023-09-19T06:24:01;4.53;;;1.60;;
52724;SDS011;38621;52.830;6.914;2023-09-19T06:26:28;3.15;;;1.65;;
52724;SDS011;38621;52.830;6.914;2023-09-19T06:28:54;7.50;;;2.03;;
52724;SDS011;38621;52.830;6.914;2023-09-19T06:31:21;5.25;;;1.55;;
52724;SDS011;38621;52.830;6.914;2023-09-19T06:33:48;5.55;;;1.77;;
52724;SDS011;38621;52.830;6.914;2023-09-19T06:36:14;4.07;;;1.40;;
52724;SDS011;38621;52.830;6.914;2023-09-19T06:38:40;6.45;;;2.00;;
52724;SDS011;38621;52.830;6.914;2023-09-19T06:41:06;6.13;;;1.60;;
52724;SDS011;38621;52.830;6.914;2023-09-19T06:43:34;4.32;;;1.60;;
52724;SDS011;38621;52.830;6.914;2023-09-19T06:46:00;6.90;;;1.50;;
52724;SDS011;38621;52.830;6.914;2023-09-19T06:48:27;4.88;;;1.38;;
52724;SDS011;38621;52.830;6.914;2023-09-19T06:50:54;5.78;;;2.22;;
52724;SDS011;38621;52.830;6.914;2023-09-19T06:53:20;4.30;;;1.50;;
52724;SDS011;38621;52.830;6.914;2023-09-19T06:55:49;4.82;;;1.73;;
52724;SDS011;38621;52.830;6.914;2023-09-19T06:58:18;4.35;;;1.52;;
52724;SDS011;38621;52.830;6.914;2023-09-19T07:00:45;4.75;;;1.55;;
52724;SDS011;38621;52.830;6.914;2023-09-19T07:03:13;4.80;;;1.70;;
52724;SDS011;38621;52.830;6.914;2023-09-19T07:05:41;4.53;;;1.73;;
52724;SDS011;38621;52.830;6.914;2023-09-19T07:08:08;5.80;;;1.73;;
52724;SDS011;38621;52.830;6.914;2023-09-19T07:10:35;4.60;;;1.67;;
52724;SDS011;38621;52.830;6.914;2023-09-19T07:13:02;6.00;;;1.83;;
52724;SDS011;38621;52.830;6.914;2023-09-19T07:15:34;5.78;;;1.58;;
52724;SDS011;38621;52.830;6.914;2023-09-19T07:18:03;6.20;;;1.60;;
52724;SDS011;38621;52.830;6.914;2023-09-19T07:20:30;6.00;;;1.73;;
52724;SDS011;38621;52.830;6.914;2023-09-19T07:22:57;6.05;;;1.73;;
52724;SDS011;38621;52.830;6.914;2023-09-19T07:25:29;5.20;;;1.75;;
52724;SDS011;38621;52.830;6.914;2023-09-19T07:27:56;6.63;;;1.70;;
52724;SDS011;38621;52.830;6.914;2023-09-19T07:30:26;4.57;;;1.50;;
52724;SDS011;38621;52.830;6.914;2023-09-19T07:32:51;5.80;;;2.00;;
52724;SDS011;38621;52.830;6.914;2023-09-19T07:35:17;6.07;;;1.60;;
52724;SDS011;38621;52.830;6.914;2023-09-19T07:37:45;6.53;;;1.98;;
52724;SDS011;38621;52.830;6.914;2023-09-19T07:40:14;5.95;;;1.73;;
52724;SDS011;38621;52.830;6.914;2023-09-19T07:42:40;4.68;;;1.83;;
52724;SDS011;38621;52.830;6.914;2023-09-19T07:45:07;6.88;;;1.98;;
52724;SDS011;38621;52.830;6.914;2023-09-19T07:47:33;4.65;;;1.83;;
52724;SDS011;38621;52.830;6.914;2023-09-19T07:50:01;4.00;;;1.70;;
52724;SDS011;38621;52.830;6.914;2023-09-19T07:52:28;5.43;;;1.83;;
52724;SDS011;38621;52.830;6.914;2023-09-19T07:54:54;5.35;;;1.42;;
52724;SDS011;38621;52.830;6.914;2023-09-19T07:57:19;7.60;;;1.73;;
52724;SDS011;38621;52.830;6.914;2023-09-19T07:59:45;4.68;;;1.45;;
52724;SDS011;38621;52.830;6.914;2023-09-19T08:02:11;3.80;;;1.40;;
52724;SDS011;38621;52.830;6.914;2023-09-19T08:04:43;6.90;;;1.55;;
52724;SDS011;38621;52.830;6.914;2023-09-19T08:07:11;5.90;;;1.90;;
52724;SDS011;38621;52.830;6.914;2023-09-19T08:09:38;4.93;;;1.50;;
52724;SDS011;38621;52.830;6.914;2023-09-19T08:12:07;5.35;;;1.38;;
52724;SDS011;38621;52.830;6.914;2023-09-19T08:14:35;4.82;;;1.42;;
52724;SDS011;38621;52.830;6.914;2023-09-19T08:17:02;4.95;;;1.45;;
52724;SDS011;38621;52.830;6.914;2023-09-19T08:19:28;6.80;;;1.67;;
52724;SDS011;38621;52.830;6.914;2023-09-19T08:21:55;5.95;;;2.13;;
52724;SDS011;38621;52.830;6.914;2023-09-19T08:24:24;5.55;;;1.95;;
52724;SDS011;38621;52.830;6.914;2023-09-19T08:26:56;5.72;;;1.67;;
52724;SDS011;38621;52.830;6.914;2023-09-19T08:29:23;5.95;;;1.40;;
52724;SDS011;38621;52.830;6.914;2023-09-19T08:31:55;8.02;;;1.58;;
52724;SDS011;38621;52.830;6.914;2023-09-19T08:34:25;4.32;;;1.40;;
52724;SDS011;38621;52.830;6.914;2023-09-19T08:36:51;6.63;;;1.85;;
52724;SDS011;38621;52.830;6.914;2023-09-19T08:39:21;5.05;;;1.58;;
52724;SDS011;38621;52.830;6.914;2023-09-19T08:41:57;7.22;;;2.20;;
52724;SDS011;38621;52.830;6.914;2023-09-19T08:44:24;6.85;;;2.00;;
52724;SDS011;38621;52.830;6.914;2023-09-19T08:46:50;8.90;;;1.63;;
52724;SDS011;38621;52.830;6.914;2023-09-19T08:49:24;4.75;;;1.90;;
52724;SDS011;38621;52.830;6.914;2023-09-19T08:52:05;6.15;;;1.73;;
52724;SDS011;38621;52.830;6.914;2023-09-19T08:54:45;5.53;;;1.80;;
52724;SDS011;38621;52.830;6.914;2023-09-19T08:57:13;7.68;;;1.92;;
52724;SDS011;38621;52.830;6.914;2023-09-19T08:59:46;11.13;;;2.50;;
52724;SDS011;38621;52.830;6.914;2023-09-19T09:02:16;7.72;;;1.80;;
52724;SDS011;38621;52.830;6.914;2023-09-19T09:04:44;7.72;;;1.88;;
52724;SDS011;38621;52.830;6.914;2023-09-19T09:07:12;5.25;;;2.08;;
52724;SDS011;38621;52.830;6.914;2023-09-19T09:09:39;6.40;;;2.33;;
52724;SDS011;38621;52.830;6.914;2023-09-19T09:12:16;5.68;;;2.38;;
52724;SDS011;38621;52.830;6.914;2023-09-19T09:14:46;8.98;;;2.30;;
52724;SDS011;38621;52.830;6.914;2023-09-19T09:17:13;6.95;;;1.95;;
52724;SDS011;38621;52.830;6.914;2023-09-19T09:19:40;9.40;;;2.17;;
52724;SDS011;38621;52.830;6.914;2023-09-19T09:22:08;6.93;;;2.10;;
52724;SDS011;38621;52.830;6.914;2023-09-19T09:24:35;6.35;;;2.05;;
52724;SDS011;38621;52.830;6.914;2023-09-19T09:27:04;6.50;;;1.92;;
52724;SDS011;38621;52.830;6.914;2023-09-19T09:29:40;8.35;;;2.63;;
52724;SDS011;38621;52.830;6.914;2023-09-19T09:32:30;6.57;;;1.98;;
52724;SDS011;38621;52.830;6.914;2023-09-19T09:35:01;7.82;;;2.22;;
52724;SDS011;38621;52.830;6.914;2023-09-19T09:37:34;8.95;;;2.03;;
52724;SDS011;38621;52.830;6.914;2023-09-19T09:40:03;5.10;;;1.75;;
52724;SDS011;38621;52.830;6.914;2023-09-19T09:42:39;8.32;;;1.92;;
52724;SDS011;38621;52.830;6.914;2023-09-19T09:45:18;5.97;;;2.03;;
52724;SDS011;38621;52.830;6.914;2023-09-19T09:48:15;8.05;;;1.83;;
52724;SDS011;38621;52.830;6.914;2023-09-19T09:50:47;4.57;;;1.45;;
52724;SDS011;38621;52.830;6.914;2023-09-19T09:56:10;6.85;;;2.00;;
52724;SDS011;38621;52.830;6.914;2023-09-19T09:58:51;6.30;;;1.45;;
52724;SDS011;38621;52.830;6.914;2023-09-19T10:01:21;5.57;;;1.80;;
52724;SDS011;38621;52.830;6.914;2023-09-19T10:03:52;4.93;;;1.77;;
52724;SDS011;38621;52.830;6.914;2023-09-19T10:06:22;4.72;;;2.20;;
52724;SDS011;38621;52.830;6.914;2023-09-19T10:09:03;4.85;;;1.73;;
52724;SDS011;38621;52.830;6.914;2023-09-19T10:11:45;5.95;;;1.80;;
52724;SDS011;38621;52.830;6.914;2023-09-19T10:14:12;4.43;;;1.75;;
52724;SDS011;38621;52.830;6.914;2023-09-19T10:16:47;4.88;;;1.70;;
52724;SDS011;38621;52.830;6.914;2023-09-19T10:19:59;6.85;;;2.15;;
52724;SDS011;38621;52.830;6.914;2023-09-19T10:22:02;4.80;;;1.77;;
52724;SDS011;38621;52.830;6.914;2023-09-19T10:24:29;5.63;;;1.88;;
52724;SDS011;38621;52.830;6.914;2023-09-19T10:26:59;6.25;;;1.40;;
52724;SDS011;38621;52.830;6.914;2023-09-19T10:29:25;4.40;;;1.70;;
52724;SDS011;38621;52.830;6.914;2023-09-19T10:31:55;4.78;;;1.67;;
52724;SDS011;38621;52.830;6.914;2023-09-19T10:34:23;6.88;;;1.95;;
52724;SDS011;38621;52.830;6.914;2023-09-19T10:36:50;3.72;;;1.67;;
52724;SDS011;38621;52.830;6.914;2023-09-19T10:39:17;4.80;;;1.83;;
52724;SDS011;38621;52.830;6.914;2023-09-19T10:41:45;7.43;;;1.55;;
52724;SDS011;38621;52.830;6.914;2023-09-19T10:44:23;7.07;;;1.85;;
52724;SDS011;38621;52.830;6.914;2023-09-19T10:46:50;4.38;;;1.63;;
52724;SDS011;38621;52.830;6.914;2023-09-19T10:49:18;4.40;;;1.77;;
52724;SDS011;38621;52.830;6.914;2023-09-19T10:51:45;5.20;;;1.67;;
52724;SDS011;38621;52.830;6.914;2023-09-19T10:54:15;8.73;;;1.40;;
52724;SDS011;38621;52.830;6.914;2023-09-19T10:56:51;9.63;;;2.33;;
52724;SDS011;38621;52.830;6.914;2023-09-19T10:59:19;6.22;;;2.08;;
52724;SDS011;38621;52.830;6.914;2023-09-19T11:01:50;4.50;;;1.70;;
52724;SDS011;38621;52.830;6.914;2023-09-19T11:04:31;7.60;;;1.90;;
52724;SDS011;38621;52.830;6.914;2023-09-19T11:07:06;3.30;;;1.60;;
52724;SDS011;38621;52.830;6.914;2023-09-19T11:09:48;2.95;;;1.60;;
52724;SDS011;38621;52.830;6.914;2023-09-19T11:15:10;4.88;;;1.45;;
52724;SDS011;38621;52.830;6.914;2023-09-19T11:26:49;6.38;;;1.60;;
52724;SDS011;38621;52.830;6.914;2023-09-19T11:31:58;6.68;;;1.83;;
52724;SDS011;38621;52.830;6.914;2023-09-19T11:37:02;4.20;;;1.83;;
52724;SDS011;38621;52.830;6.914;2023-09-19T11:40:07;6.32;;;1.60;;
52724;SDS011;38621;52.830;6.914;2023-09-19T11:42:41;6.45;;;1.65;;
52724;SDS011;38621;52.830;6.914;2023-09-19T11:48:15;6.97;;;1.50;;
52724;SDS011;38621;52.830;6.914;2023-09-19T11:50:44;4.45;;;1.42;;
52724;SDS011;38621;52.830;6.914;2023-09-19T11:53:12;6.55;;;1.65;;
52724;SDS011;38621;52.830;6.914;2023-09-19T11:55:39;6.05;;;1.45;;
52724;SDS011;38621;52.830;6.914;2023-09-19T11:58:08;4.45;;;1.52;;
52724;SDS011;38621;52.830;6.914;2023-09-19T12:00:37;4.90;;;1.60;;
52724;SDS011;38621;52.830;6.914;2023-09-19T12:03:09;5.53;;;1.73;;
52724;SDS011;38621;52.830;6.914;2023-09-19T12:05:36;7.18;;;1.58;;
52724;SDS011;38621;52.830;6.914;2023-09-19T12:08:04;8.18;;;1.38;;
52724;SDS011;38621;52.830;6.914;2023-09-19T12:10:43;5.28;;;1.50;;
52724;SDS011;38621;52.830;6.914;2023-09-19T12:13:16;3.70;;;1.48;;
52724;SDS011;38621;52.830;6.914;2023-09-19T12:15:43;5.68;;;1.67;;
52724;SDS011;38621;52.830;6.914;2023-09-19T12:18:28;5.50;;;1.55;;
52724;SDS011;38621;52.830;6.914;2023-09-19T12:20:55;4.65;;;1.38;;
52724;SDS011;38621;52.830;6.914;2023-09-19T12:23:22;5.07;;;1.45;;
52724;SDS011;38621;52.830;6.914;2023-09-19T12:25:48;6.20;;;1.50;;
52724;SDS011;38621;52.830;6.914;2023-09-19T12:28:18;5.38;;;1.63;;
52724;SDS011;38621;52.830;6.914;2023-09-19T12:30:47;4.45;;;1.30;;
52724;SDS011;38621;52.830;6.914;2023-09-19T12:33:15;4.05;;;1.40;;
52724;SDS011;38621;52.830;6.914;2023-09-19T12:35:50;5.05;;;1.65;;
52724;SDS011;38621;52.830;6.914;2023-09-19T12:38:27;6.38;;;1.80;;
52724;SDS011;38621;52.830;6.914;2023-09-19T12:41:01;3.28;;;1.30;;
52724;SDS011;38621;52.830;6.914;2023-09-19T12:43:28;5.00;;;1.42;;
52724;SDS011;38621;52.830;6.914;2023-09-19T12:45:57;5.22;;;2.13;;
52724;SDS011;38621;52.830;6.914;2023-09-19T12:48:25;3.78;;;1.20;;
52724;SDS011;38621;52.830;6.914;2023-09-19T12:51:01;4.72;;;1.40;;
52724;SDS011;38621;52.830;6.914;2023-09-19T12:53:38;7.18;;;1.80;;
52724;SDS011;38621;52.830;6.914;2023-09-19T12:56:15;4.97;;;1.50;;
52724;SDS011;38621;52.830;6.914;2023-09-19T12:58:52;6.22;;;1.75;;
52724;SDS011;38621;52.830;6.914;2023-09-19T13:01:24;5.50;;;1.73;;
52724;SDS011;38621;52.830;6.914;2023-09-19T13:06:50;5.80;;;1.92;;
52724;SDS011;38621;52.830;6.914;2023-09-19T13:09:17;3.88;;;1.52;;
52724;SDS011;38621;52.830;6.914;2023-09-19T13:11:45;5.75;;;1.25;;
52724;SDS011;38621;52.830;6.914;2023-09-19T13:17:01;5.68;;;1.63;;
52724;SDS011;38621;52.830;6.914;2023-09-19T13:19:47;5.25;;;1.60;;
52724;SDS011;38621;52.830;6.914;2023-09-19T13:25:19;3.45;;;1.63;;
52724;SDS011;38621;52.830;6.914;2023-09-19T13:27:50;4.65;;;1.42;;
52724;SDS011;38621;52.830;6.914;2023-09-19T13:30:19;5.00;;;1.80;;
52724;SDS011;38621;52.830;6.914;2023-09-19T13:32:45;4.80;;;1.48;;
52724;SDS011;38621;52.830;6.914;2023-09-19T13:35:12;6.70;;;1.90;;
52724;SDS011;38621;52.830;6.914;2023-09-19T13:37:39;3.38;;;1.30;;
52724;SDS011;38621;52.830;6.914;2023-09-19T13:40:10;4.05;;;1.20;;
52724;SDS011;38621;52.830;6.914;2023-09-19T13:42:37;5.85;;;1.77;;
52724;SDS011;38621;52.830;6.914;2023-09-19T13:45:03;2.67;;;1.08;;
52724;SDS011;38621;52.830;6.914;2023-09-19T13:47:30;4.00;;;1.50;;
52724;SDS011;38621;52.830;6.914;2023-09-19T13:49:56;4.25;;;1.42;;
52724;SDS011;38621;52.830;6.914;2023-09-19T13:52:22;2.55;;;0.98;;
52724;SDS011;38621;52.830;6.914;2023-09-19T13:54:51;4.18;;;1.42;;
52724;SDS011;38621;52.830;6.914;2023-09-19T13:57:18;3.85;;;1.27;;
52724;SDS011;38621;52.830;6.914;2023-09-19T13:59:43;5.88;;;1.55;;
52724;SDS011;38621;52.830;6.914;2023-09-19T14:02:09;4.57;;;1.27;;
52724;SDS011;38621;52.830;6.914;2023-09-19T14:04:35;3.33;;;1.30;;
52724;SDS011;38621;52.830;6.914;2023-09-19T14:07:01;5.60;;;1.15;;
52724;SDS011;38621;52.830;6.914;2023-09-19T14:09:27;4.13;;;1.50;;
52724;SDS011;38621;52.830;6.914;2023-09-19T14:11:53;3.30;;;1.20;;
52724;SDS011;38621;52.830;6.914;2023-09-19T14:14:19;5.45;;;1.48;;
52724;SDS011;38621;52.830;6.914;2023-09-19T14:16:47;4.05;;;1.30;;
52724;SDS011;38621;52.830;6.914;2023-09-19T14:19:13;5.57;;;1.50;;
52724;SDS011;38621;52.830;6.914;2023-09-19T14:21:41;3.35;;;1.23;;
52724;SDS011;38621;52.830;6.914;2023-09-19T14:24:07;3.85;;;1.08;;
52724;SDS011;38621;52.830;6.914;2023-09-19T14:26:38;5.68;;;1.50;;
52724;SDS011;38621;52.830;6.914;2023-09-19T14:29:04;3.25;;;1.10;;
52724;SDS011;38621;52.830;6.914;2023-09-19T14:31:32;2.97;;;1.00;;
52724;SDS011;38621;52.830;6.914;2023-09-19T14:33:59;3.67;;;1.40;;
52724;SDS011;38621;52.830;6.914;2023-09-19T14:36:25;4.20;;;1.17;;
52724;SDS011;38621;52.830;6.914;2023-09-19T14:38:55;3.67;;;1.17;;
52724;SDS011;38621;52.830;6.914;2023-09-19T14:41:22;5.00;;;1.42;;
52724;SDS011;38621;52.830;6.914;2023-09-19T14:43:50;4.05;;;1.02;;
52724;SDS011;38621;52.830;6.914;2023-09-19T14:46:16;4.22;;;1.20;;
52724;SDS011;38621;52.830;6.914;2023-09-19T14:48:43;3.78;;;1.30;;
52724;SDS011;38621;52.830;6.914;2023-09-19T14:51:12;3.55;;;1.00;;
52724;SDS011;38621;52.830;6.914;2023-09-19T14:53:38;4.85;;;1.00;;
52724;SDS011;38621;52.830;6.914;2023-09-19T14:56:08;4.50;;;0.90;;
52724;SDS011;38621;52.830;6.914;2023-09-19T14:58:34;3.95;;;1.30;;
52724;SDS011;38621;52.830;6.914;2023-09-19T15:01:08;3.25;;;1.00;;
52724;SDS011;38621;52.830;6.914;2023-09-19T15:03:37;2.13;;;0.77;;
52724;SDS011;38621;52.830;6.914;2023-09-19T15:06:08;3.80;;;1.05;;
52724;SDS011;38621;52.830;6.914;2023-09-19T15:08:37;2.53;;;0.80;;
52724;SDS011;38621;52.830;6.914;2023-09-19T15:11:07;4.78;;;1.08;;
52724;SDS011;38621;52.830;6.914;2023-09-19T15:13:33;3.33;;;0.90;;
52724;SDS011;38621;52.830;6.914;2023-09-19T15:16:00;2.83;;;1.20;;
52724;SDS011;38621;52.830;6.914;2023-09-19T15:18:30;2.20;;;0.95;;
52724;SDS011;38621;52.830;6.914;2023-09-19T15:21:05;2.53;;;0.90;;
52724;SDS011;38621;52.830;6.914;2023-09-19T15:26:17;1.73;;;0.68;;
52724;SDS011;38621;52.830;6.914;2023-09-19T15:28:45;4.28;;;1.13;;
52724;SDS011;38621;52.830;6.914;2023-09-19T15:31:11;2.67;;;1.20;;
52724;SDS011;38621;52.830;6.914;2023-09-19T15:33:38;3.88;;;1.00;;
52724;SDS011;38621;52.830;6.914;2023-09-19T15:36:05;2.05;;;0.90;;
52724;SDS011;38621;52.830;6.914;2023-09-19T15:39:18;3.05;;;0.90;;
52724;SDS011;38621;52.830;6.914;2023-09-19T15:41:22;2.00;;;0.82;;
52724;SDS011;38621;52.830;6.914;2023-09-19T15:43:52;2.03;;;0.80;;
52724;SDS011;38621;52.830;6.914;2023-09-19T15:46:18;2.83;;;1.00;;
52724;SDS011;38621;52.830;6.914;2023-09-19T15:48:45;2.90;;;1.00;;
52724;SDS011;38621;52.830;6.914;2023-09-19T15:51:11;3.88;;;1.00;;
52724;SDS011;38621;52.830;6.914;2023-09-19T15:53:44;3.05;;;1.15;;
52724;SDS011;38621;52.830;6.914;2023-09-19T15:56:10;3.40;;;0.90;;
52724;SDS011;38621;52.830;6.914;2023-09-19T15:58:37;4.55;;;1.20;;
52724;SDS011;38621;52.830;6.914;2023-09-19T16:01:07;2.58;;;0.80;;